Time;durP1;ratioP1;P1;durP2;ratioP2;P2;SDS_P1;SDS_P2;PMS_P1;PMS_P2;Temp;Humidity;BMP_temperature;BMP_pressure;BME280_temperature;BME280_humidity;BME280_pressure;Samples;Min_cycle;Max_cycle;Signal;HPM_P1;HPM_P2
2023/10/01 00:00:08;;;;;;;3.33;1.50;;;16.80;40.90;;;;;;4994434;28;20180;-50
2023/10/01 00:02:34;;;;;;;1.20;0.85;;;16.80;41.30;;;;;;4995369;28;20542;-51
2023/10/01 00:05:00;;;;;;;1.42;1.20;;;16.70;41.00;;;;;;4995489;28;20167;-51
2023/10/01 00:07:27;;;;;;;3.33;1.10;;;16.80;40.80;;;;;;4994991;28;20190;-54
2023/10/01 00:09:53;;;;;;;2.67;1.27;;;16.80;40.80;;;;;;4994711;28;20421;-53
2023/10/01 00:12:19;;;;;;;4.43;2.58;;;16.80;41.20;;;;;;4994690;28;20179;-50
2023/10/01 00:14:45;;;;;;;1.80;1.23;;;16.70;41.00;;;;;;4994920;28;20701;-51
2023/10/01 00:17:10;;;;;;;1.47;1.00;;;16.70;41.00;;;;;;4994504;28;20713;-51
2023/10/01 00:19:37;;;;;;;2.63;1.40;;;16.70;40.70;;;;;;4994506;28;20247;-49
2023/10/01 00:22:02;;;;;;;1.98;1.35;;;16.70;41.00;;;;;;4994869;28;20179;-51
2023/10/01 00:24:29;;;;;;;1.77;1.67;;;16.60;40.90;;;;;;4994372;28;20238;-56
2023/10/01 00:26:54;;;;;;;2.72;1.70;;;16.70;41.20;;;;;;4994590;28;20278;-54
2023/10/01 00:29:22;;;;;;;1.30;0.97;;;16.60;41.20;;;;;;4994628;28;20237;-51
2023/10/01 00:31:49;;;;;;;1.35;0.90;;;16.60;41.30;;;;;;4994139;28;20237;-52
2023/10/01 00:34:18;;;;;;;4.05;1.73;;;16.60;41.40;;;;;;4994369;28;20677;-52
2023/10/01 00:36:44;;;;;;;2.72;1.05;;;16.60;41.30;;;;;;4994504;28;20202;-53
2023/10/01 00:39:10;;;;;;;1.48;1.17;;;16.50;41.70;;;;;;4993862;28;20573;-53
2023/10/01 00:41:35;;;;;;;2.73;1.73;;;16.40;41.80;;;;;;4994149;28;20171;-55
2023/10/01 00:44:03;;;;;;;7.63;1.63;;;16.40;41.60;;;;;;4994216;28;20171;-53
2023/10/01 00:46:29;;;;;;;1.60;1.23;;;16.40;41.80;;;;;;4994027;28;20650;-55
2023/10/01 00:48:56;;;;;;;1.30;1.00;;;16.40;41.90;;;;;;4994298;28;20230;-53
2023/10/01 00:51:22;;;;;;;1.50;1.38;;;16.40;42.10;;;;;;4993997;28;20183;-52
2023/10/01 00:53:49;;;;;;;1.23;0.97;;;16.40;42.10;;;;;;4993925;28;20600;-54
2023/10/01 00:56:16;;;;;;;1.70;1.10;;;16.40;42.00;;;;;;4994129;28;20456;-51
2023/10/01 00:58:43;;;;;;;1.60;1.48;;;16.40;42.00;;;;;;4993679;28;20198;-52
2023/10/01 01:01:11;;;;;;;1.85;1.63;;;16.40;42.00;;;;;;4994538;28;20171;-50
2023/10/01 01:03:36;;;;;;;1.90;0.77;;;16.40;42.30;;;;;;4994312;28;20175;-54
2023/10/01 01:08:46;;;;;;;1.30;1.02;;;16.30;42.00;;;;;;4994192;28;20963;-53
2023/10/01 01:11:15;;;;;;;2.63;1.27;;;16.40;42.20;;;;;;4993915;28;20187;-55
2023/10/01 01:13:45;;;;;;;2.80;1.85;;;16.30;42.00;;;;;;4993571;28;20601;-51
2023/10/01 01:16:13;;;;;;;3.35;1.05;;;16.30;41.90;;;;;;4993396;28;20210;-51
2023/10/01 01:18:42;;;;;;;2.03;1.77;;;16.30;42.20;;;;;;4993947;28;20195;-49
2023/10/01 01:21:11;;;;;;;1.63;1.10;;;16.20;42.10;;;;;;4994309;28;21027;-52
2023/10/01 01:23:37;;;;;;;1.58;1.38;;;16.20;42.00;;;;;;4993895;28;20237;-51
2023/10/01 01:26:03;;;;;;;1.20;0.80;;;16.20;42.20;;;;;;4993701;28;20190;-52
2023/10/01 01:28:32;;;;;;;1.98;0.90;;;16.20;42.20;;;;;;4993610;28;20199;-50
2023/10/01 01:31:03;;;;;;;1.70;1.40;;;16.10;42.10;;;;;;4993742;28;20179;-53
2023/10/01 01:33:44;;;;;;;3.40;1.48;;;16.10;42.10;;;;;;4993395;28;20188;-50
2023/10/01 01:36:12;;;;;;;1.80;0.98;;;16.10;42.30;;;;;;4993612;28;20203;-50
2023/10/01 01:39:12;;;;;;;2.50;1.00;;;16.00;42.40;;;;;;4994397;28;20222;-49
2023/10/01 01:41:47;;;;;;;5.15;1.80;;;16.00;42.30;;;;;;4997383;28;20184;-48
2023/10/01 01:44:14;;;;;;;1.80;1.20;;;15.90;42.50;;;;;;4997624;28;20257;-51
2023/10/01 01:46:50;;;;;;;2.65;1.88;;;15.90;42.30;;;;;;4997479;28;20193;-55
2023/10/01 01:49:17;;;;;;;3.22;1.02;;;16.00;42.40;;;;;;4997312;28;20203;-53
2023/10/01 01:51:56;;;;;;;3.72;1.88;;;15.90;42.50;;;;;;4996879;28;20193;-55
2023/10/01 01:54:26;;;;;;;1.92;1.65;;;15.90;42.30;;;;;;4996756;28;20222;-50
2023/10/01 01:56:52;;;;;;;1.88;1.20;;;15.90;42.50;;;;;;4996495;28;20770;-54
2023/10/01 01:59:21;;;;;;;1.30;1.20;;;15.80;42.40;;;;;;4996656;28;20203;-53
2023/10/01 02:01:47;;;;;;;1.20;0.95;;;15.80;42.50;;;;;;4996179;28;20175;-52
2023/10/01 02:04:12;;;;;;;1.23;1.13;;;15.80;42.70;;;;;;4996014;28;20195;-52
2023/10/01 02:06:38;;;;;;;2.17;1.33;;;15.80;42.80;;;;;;4996158;28;20501;-52
2023/10/01 02:09:12;;;;;;;1.63;1.07;;;15.80;42.80;;;;;;4996075;28;20658;-52
2023/10/01 02:11:38;;;;;;;2.95;0.90;;;15.80;42.80;;;;;;4996041;28;20604;-51
2023/10/01 02:14:05;;;;;;;1.63;1.20;;;15.80;42.90;;;;;;4995787;28;20207;-53
2023/10/01 02:16:38;;;;;;;1.20;0.68;;;15.80;43.00;;;;;;4995734;28;20504;-52
2023/10/01 02:19:17;;;;;;;1.92;1.73;;;15.80;43.00;;;;;;4996150;28;20291;-55
2023/10/01 02:21:47;;;;;;;2.60;0.98;;;15.80;43.00;;;;;;4995918;28;20175;-55
2023/10/01 02:24:19;;;;;;;3.00;1.17;;;15.80;43.10;;;;;;4995827;28;20179;-55
2023/10/01 02:26:46;;;;;;;1.63;0.77;;;15.80;43.10;;;;;;4995736;28;20221;-54
2023/10/01 02:29:13;;;;;;;1.55;1.08;;;15.70;42.90;;;;;;4995455;28;20203;-55
2023/10/01 02:31:46;;;;;;;1.88;1.38;;;15.70;43.00;;;;;;4995693;28;20175;-53
2023/10/01 02:34:12;;;;;;;2.60;1.25;;;15.80;42.80;;;;;;4995617;28;20234;-55
2023/10/01 02:36:42;;;;;;;3.00;1.60;;;15.80;42.80;;;;;;4995474;28;20709;-54
2023/10/01 02:39:20;;;;;;;1.35;1.10;;;15.80;43.10;;;;;;4995579;28;20226;-55
2023/10/01 02:42:09;;;;;;;1.40;1.20;;;15.70;43.20;;;;;;4995332;28;20634;-52
2023/10/01 02:44:38;;;;;;;1.38;0.52;;;15.70;43.20;;;;;;4995156;28;20270;-52
2023/10/01 02:47:18;;;;;;;1.30;0.98;;;15.70;43.20;;;;;;4995500;28;20215;-50
2023/10/01 02:49:52;;;;;;;2.25;1.23;;;15.70;43.40;;;;;;4994525;28;20539;-51
2023/10/01 02:52:25;;;;;;;1.00;0.45;;;15.70;43.30;;;;;;4995171;28;20215;-48
2023/10/01 02:54:54;;;;;;;6.65;2.40;;;15.70;43.40;;;;;;4995336;28;20262;-51
2023/10/01 02:57:24;;;;;;;2.75;1.42;;;15.70;43.60;;;;;;4995095;28;20218;-50
2023/10/01 03:02:58;;;;;;;1.85;1.17;;;15.70;43.70;;;;;;4973154;28;20566;-51
2023/10/01 03:07:52;;;;;;;1.65;1.05;;;15.80;43.90;;;;;;4994877;28;20270;-50
2023/10/01 03:10:31;;;;;;;4.57;1.20;;;15.80;43.70;;;;;;4994854;28;20179;-51
2023/10/01 03:12:59;;;;;;;4.50;1.35;;;15.80;43.70;;;;;;4994584;28;20190;-49
2023/10/01 03:15:30;;;;;;;2.65;1.92;;;15.80;43.60;;;;;;4994875;28;20195;-52
2023/10/01 03:26:00;;;;;;;1.42;1.20;;;15.90;43.90;;;;;;4994585;28;20187;-48
2023/10/01 03:31:43;;;;;;;1.33;0.88;;;16.00;43.90;;;;;;4972544;28;20206;-49
2023/10/01 03:34:10;;;;;;;1.90;1.52;;;16.00;44.00;;;;;;4972464;28;20773;-50
2023/10/01 03:36:42;;;;;;;2.45;2.20;;;16.00;43.60;;;;;;4972623;28;20211;-52
2023/10/01 03:39:26;;;;;;;3.50;1.73;;;16.10;43.40;;;;;;4972479;28;20200;-51
2023/10/01 03:42:13;;;;;;;2.65;1.23;;;16.10;43.40;;;;;;4972477;28;20186;-50
2023/10/01 03:47:29;;;;;;;2.00;1.20;;;16.10;43.20;;;;;;4972382;28;20210;-51
2023/10/01 03:49:57;;;;;;;1.40;1.17;;;16.10;43.00;;;;;;4972494;28;20189;-51
2023/10/01 03:52:29;;;;;;;3.10;1.85;;;16.20;43.00;;;;;;4971956;28;20191;-52
2023/10/01 03:57:25;;;;;;;4.90;1.50;;;16.20;43.20;;;;;;4972223;28;20266;-51
2023/10/01 03:59:52;;;;;;;1.50;1.17;;;16.20;43.20;;;;;;4972305;28;20183;-51
2023/10/01 04:05:21;;;;;;;2.30;2.10;;;16.20;42.90;;;;;;4978510;28;20314;-51
2023/10/01 04:07:47;;;;;;;1.63;0.50;;;16.20;43.20;;;;;;4993762;28;20229;-50
2023/10/01 04:10:14;;;;;;;1.20;0.82;;;16.20;43.00;;;;;;4993899;28;20254;-49
2023/10/01 04:12:58;;;;;;;2.35;0.90;;;16.30;43.00;;;;;;4993580;28;20646;-50
2023/10/01 04:15:27;;;;;;;2.60;1.40;;;16.30;42.70;;;;;;4993605;28;20542;-51
2023/10/01 04:18:19;;;;;;;2.40;1.65;;;16.30;43.00;;;;;;4993599;28;20191;-50
2023/10/01 04:20:49;;;;;;;1.90;1.33;;;16.30;43.30;;;;;;4993537;28;20218;-51
2023/10/01 04:23:40;;;;;;;1.10;0.80;;;16.30;43.10;;;;;;4993350;28;20175;-51
2023/10/01 04:26:13;;;;;;;1.10;0.70;;;16.30;43.20;;;;;;4993587;28;20291;-52
2023/10/01 04:28:44;;;;;;;2.20;1.58;;;16.30;43.30;;;;;;4993455;28;20203;-51
2023/10/01 04:31:14;;;;;;;1.98;1.30;;;16.40;43.30;;;;;;4993384;28;20184;-50
2023/10/01 04:33:43;;;;;;;3.25;1.98;;;16.40;43.10;;;;;;4993314;28;20200;-50
2023/10/01 04:36:11;;;;;;;3.08;1.00;;;16.40;42.90;;;;;;4993045;28;20202;-49
2023/10/01 04:38:38;;;;;;;2.47;2.03;;;16.50;43.30;;;;;;4993124;28;20195;-52
2023/10/01 04:41:04;;;;;;;1.40;0.82;;;16.50;43.30;;;;;;4993143;28;20602;-50
2023/10/01 04:43:51;;;;;;;1.47;1.33;;;16.50;43.30;;;;;;4993079;28;20202;-51
2023/10/01 04:46:16;;;;;;;1.92;1.55;;;16.50;42.90;;;;;;4993095;28;20418;-50
2023/10/01 04:48:42;;;;;;;1.50;1.17;;;16.50;42.60;;;;;;4993025;28;20207;-49
2023/10/01 04:51:08;;;;;;;1.50;1.08;;;16.50;42.50;;;;;;4993189;28;20186;-51
2023/10/01 04:53:34;;;;;;;2.75;2.55;;;16.50;42.50;;;;;;4992827;28;20179;-49
2023/10/01 04:56:00;;;;;;;2.20;0.70;;;16.50;42.30;;;;;;4993015;28;20195;-49
2023/10/01 04:58:32;;;;;;;1.27;1.03;;;16.50;42.30;;;;;;4992861;28;20250;-50
2023/10/01 05:00:58;;;;;;;4.70;1.77;;;16.50;42.80;;;;;;4992870;28;20411;-50
2023/10/01 05:03:40;;;;;;;7.47;1.50;;;16.50;42.20;;;;;;4992632;28;20175;-50
2023/10/01 05:06:19;;;;;;;1.30;1.05;;;16.50;42.40;;;;;;4992990;28;20542;-52
2023/10/01 05:08:49;;;;;;;1.85;1.45;;;16.50;42.30;;;;;;4992754;28;20696;-48
2023/10/01 05:11:21;;;;;;;1.38;1.00;;;16.50;42.40;;;;;;4992781;28;20262;-53
2023/10/01 05:13:48;;;;;;;1.40;1.30;;;16.50;42.60;;;;;;4991990;28;20549;-49
2023/10/01 05:16:18;;;;;;;3.22;1.63;;;16.50;42.80;;;;;;4992631;28;20211;-48
2023/10/01 05:18:45;;;;;;;4.20;1.67;;;16.50;42.90;;;;;;4992816;28;20199;-51
2023/10/01 05:21:18;;;;;;;2.10;1.27;;;16.50;42.60;;;;;;4992649;28;20167;-52
2023/10/01 05:23:48;;;;;;;1.75;1.15;;;16.60;42.70;;;;;;4992574;28;20212;-49
2023/10/01 05:26:20;;;;;;;1.30;1.08;;;16.60;42.60;;;;;;4992414;28;20225;-51
2023/10/01 05:28:48;;;;;;;1.40;1.00;;;16.60;43.00;;;;;;4992840;28;20210;-51
2023/10/01 05:31:24;;;;;;;1.77;1.67;;;16.60;42.80;;;;;;4992678;28;20178;-49
2023/10/01 05:33:52;;;;;;;1.73;1.08;;;16.70;42.60;;;;;;4992406;28;20183;-50
2023/10/01 05:36:22;;;;;;;1.35;0.70;;;16.70;42.30;;;;;;4992438;28;20236;-53
2023/10/01 05:38:51;;;;;;;1.40;1.08;;;16.70;42.20;;;;;;4992369;28;20222;-50
2023/10/01 05:41:29;;;;;;;1.05;0.63;;;16.70;42.20;;;;;;4992656;28;20187;-51
2023/10/01 05:43:55;;;;;;;2.10;1.45;;;16.80;42.30;;;;;;4992429;28;20585;-52
2023/10/01 05:46:27;;;;;;;1.50;1.20;;;16.70;42.30;;;;;;4992630;28;20187;-47
2023/10/01 05:48:55;;;;;;;8.73;1.42;;;16.70;42.20;;;;;;4992497;28;20612;-52
2023/10/01 05:51:30;;;;;;;1.40;0.82;;;16.80;42.20;;;;;;4992238;28;20716;-50
2023/10/01 05:53:56;;;;;;;2.58;1.17;;;16.90;42.10;;;;;;4992188;28;20183;-50
2023/10/01 05:56:23;;;;;;;4.18;1.80;;;16.80;42.10;;;;;;4992391;28;20269;-49
2023/10/01 05:58:50;;;;;;;5.93;1.80;;;16.90;42.10;;;;;;4992244;28;20282;-51
2023/10/01 06:01:17;;;;;;;1.52;1.42;;;16.80;42.10;;;;;;4992168;28;20179;-51
2023/10/01 06:03:44;;;;;;;1.65;1.40;;;16.90;42.10;;;;;;4991984;28;20184;-48
2023/10/01 06:06:23;;;;;;;1.27;0.68;;;17.00;42.20;;;;;;4991294;28;20206;-53
2023/10/01 06:08:59;;;;;;;1.40;0.70;;;16.90;42.10;;;;;;4992304;28;20195;-51
2023/10/01 06:11:39;;;;;;;1.63;1.25;;;17.00;42.10;;;;;;4992301;28;20182;-50
2023/10/01 06:14:36;;;;;;;3.67;2.50;;;17.00;41.90;;;;;;4991991;28;20175;-50
2023/10/01 06:17:00;;;;;;;10.57;1.05;;;17.00;41.90;;;;;;4992023;28;20230;-50
2023/10/01 06:19:33;;;;;;;1.95;1.10;;;17.00;41.90;;;;;;4992022;28;20196;-50
2023/10/01 06:25:06;;;;;;;1.10;0.60;;;17.10;42.10;;;;;;4971921;28;20172;-48
2023/10/01 06:27:32;;;;;;;1.40;1.00;;;17.10;42.10;;;;;;4973798;28;20219;-48
2023/10/01 06:30:00;;;;;;;2.93;0.87;;;17.20;42.20;;;;;;4973983;28;20292;-49
2023/10/01 06:32:26;;;;;;;3.40;1.23;;;17.20;42.00;;;;;;4973591;28;20196;-49
2023/10/01 06:34:57;;;;;;;1.98;1.02;;;17.20;41.90;;;;;;4973731;28;20180;-50
2023/10/01 06:37:25;;;;;;;3.72;2.45;;;17.30;42.00;;;;;;4973618;28;20247;-51
2023/10/01 06:39:51;;;;;;;2.13;0.90;;;17.40;42.00;;;;;;4973686;28;20223;-49
2023/10/01 06:42:20;;;;;;;2.13;1.47;;;17.40;41.90;;;;;;4973552;28;20168;-56
2023/10/01 06:44:58;;;;;;;1.45;1.20;;;17.40;42.00;;;;;;4973678;28;20637;-50
2023/10/01 06:47:25;;;;;;;1.67;0.77;;;17.50;41.90;;;;;;4973464;28;20566;-50
2023/10/01 06:52:34;;;;;;;1.90;1.50;;;17.60;41.90;;;;;;4973330;28;20639;-50
2023/10/01 06:55:01;;;;;;;9.05;1.70;;;17.70;41.70;;;;;;4973525;28;20235;-50
2023/10/01 06:57:31;;;;;;;2.10;1.30;;;17.70;41.70;;;;;;4973284;28;20211;-50
2023/10/01 06:59:57;;;;;;;1.63;1.10;;;17.80;41.60;;;;;;4992218;28;20187;-48
2023/10/01 07:02:26;;;;;;;1.27;0.97;;;17.80;41.60;;;;;;4995039;28;20187;-50
2023/10/01 07:04:58;;;;;;;2.13;1.10;;;17.90;41.70;;;;;;4995238;28;20406;-48
2023/10/01 07:07:28;;;;;;;1.88;1.33;;;17.90;41.60;;;;;;4995063;28;20179;-52
2023/10/01 07:09:57;;;;;;;3.65;1.38;;;18.00;41.50;;;;;;4994914;28;20171;-49
2023/10/01 07:12:24;;;;;;;1.45;1.08;;;18.00;41.40;;;;;;4994666;28;20650;-50
2023/10/01 07:14:53;;;;;;;1.95;0.95;;;18.10;41.10;;;;;;4995002;28;20310;-49
2023/10/01 07:17:24;;;;;;;3.83;1.33;;;18.20;41.30;;;;;;4994553;28;20577;-48
2023/10/01 07:20:00;;;;;;;2.10;0.82;;;18.20;41.30;;;;;;4994933;28;20186;-52
2023/10/01 07:22:31;;;;;;;1.30;0.98;;;19.00;41.70;;;;;;4994600;28;20179;-50
2023/10/01 07:25:28;;;;;;;1.77;1.40;;;18.30;41.40;;;;;;4994755;28;20179;-52
2023/10/01 07:27:51;;;;;;;1.98;1.15;;;18.40;41.30;;;;;;4994491;28;20203;-51
2023/10/01 07:30:18;;;;;;;2.47;1.50;;;18.50;41.30;;;;;;4994675;28;20266;-50
2023/10/01 07:32:44;;;;;;;1.15;0.90;;;18.50;41.40;;;;;;4994389;28;20313;-48
2023/10/01 07:35:13;;;;;;;11.75;1.27;;;18.60;41.60;;;;;;4994488;28;20258;-51
2023/10/01 07:37:41;;;;;;;3.55;1.58;;;18.80;41.30;;;;;;4993845;28;20263;-51
2023/10/01 07:40:13;;;;;;;1.52;0.68;;;18.90;41.50;;;;;;4994548;28;20175;-52
2023/10/01 07:42:47;;;;;;;1.92;0.75;;;19.00;41.40;;;;;;4994409;28;20179;-50
2023/10/01 07:45:17;;;;;;;4.03;1.02;;;19.20;40.80;;;;;;4994294;28;20182;-49
2023/10/01 07:47:44;;;;;;;2.28;1.45;;;19.20;40.40;;;;;;4994008;28;20206;-52
2023/10/01 07:50:12;;;;;;;1.83;1.45;;;19.30;39.70;;;;;;4994304;28;20199;-52
2023/10/01 07:52:40;;;;;;;1.75;1.52;;;19.30;40.20;;;;;;4993936;28;20179;-51
2023/10/01 07:58:16;;;;;;;1.98;1.05;;;19.40;40.20;;;;;;4994285;28;20206;-52
2023/10/01 08:00:41;;;;;;;1.20;0.75;;;19.40;40.30;;;;;;4993952;28;20175;-53
2023/10/01 08:05:48;;;;;;;2.28;1.05;;;19.50;40.10;;;;;;4994131;28;20704;-52
2023/10/01 08:08:15;;;;;;;1.10;0.77;;;19.60;40.30;;;;;;4993789;28;20202;-53
2023/10/01 08:10:43;;;;;;;3.15;2.10;;;19.70;40.20;;;;;;4993757;28;20187;-53
2023/10/01 08:13:23;;;;;;;2.17;1.50;;;19.70;40.40;;;;;;4993774;28;20189;-51
2023/10/01 08:15:58;;;;;;;2.05;1.10;;;19.80;40.30;;;;;;4993743;28;20214;-50
2023/10/01 08:18:58;;;;;;;2.10;1.20;;;19.90;40.30;;;;;;4993758;28;20194;-51
2023/10/01 08:21:17;;;;;;;1.60;1.27;;;20.00;39.80;;;;;;4992278;28;20179;-52
2023/10/01 08:23:48;;;;;;;1.50;0.93;;;20.10;39.80;;;;;;4993612;28;20194;-52
2023/10/01 08:29:03;;;;;;;1.65;1.20;;;20.20;39.50;;;;;;4993760;28;20202;-52
2023/10/01 08:34:28;;;;;;;1.27;0.98;;;20.40;39.90;;;;;;4993429;28;20269;-52
2023/10/01 08:36:56;;;;;;;6.03;1.30;;;20.50;40.00;;;;;;4993489;28;20210;-54
2023/10/01 08:39:33;;;;;;;3.35;1.40;;;20.70;40.10;;;;;;4993302;28;20195;-52
2023/10/01 08:42:09;;;;;;;4.95;1.15;;;20.80;40.60;;;;;;4993123;28;20179;-51
2023/10/01 08:44:52;;;;;;;1.52;1.15;;;21.00;39.70;;;;;;4993235;28;20553;-53
2023/10/01 08:49:56;;;;;;;1.48;1.00;;;21.20;38.50;;;;;;4992716;28;20171;-53
2023/10/01 08:52:27;;;;;;;2.07;1.20;;;21.30;38.90;;;;;;4992827;28;20770;-52
2023/10/01 08:54:56;;;;;;;1.67;0.80;;;21.40;39.00;;;;;;4993008;28;20435;-51
2023/10/01 08:57:37;;;;;;;2.27;1.73;;;21.50;38.80;;;;;;4992947;28;20825;-51
2023/10/01 09:00:20;;;;;;;1.30;0.60;;;21.60;38.60;;;;;;4992941;28;20414;-52
2023/10/01 09:02:55;;;;;;;3.10;2.05;;;21.70;38.60;;;;;;4992696;28;20183;-50
2023/10/01 09:05:24;;;;;;;2.00;1.00;;;21.80;38.70;;;;;;4993148;28;20330;-55
2023/10/01 09:10:50;;;;;;;1.50;1.00;;;22.20;38.50;;;;;;4993529;28;20394;-52
2023/10/01 09:13:21;;;;;;;2.60;1.87;;;22.30;38.40;;;;;;4992566;28;20398;-52
2023/10/01 09:16:12;;;;;;;1.87;1.03;;;22.40;37.20;;;;;;4992981;28;20453;-53
2023/10/01 09:19:42;;;;;;;1.10;0.50;;;22.50;37.70;;;;;;4992908;28;20438;-54
2023/10/01 09:21:40;;;;;;;2.67;1.87;;;22.60;37.70;;;;;;4982344;28;20577;-52
2023/10/01 09:24:42;;;;;;;1.20;0.70;;;22.80;35.40;;;;;;4992577;28;20976;-51
2023/10/01 09:27:18;;;;;;;1.30;0.80;;;22.90;36.60;;;;;;4992580;28;20221;-51
2023/10/01 09:29:57;;;;;;;1.30;0.70;;;23.10;35.40;;;;;;4992802;28;20418;-52
2023/10/01 09:32:50;;;;;;;3.10;1.13;;;23.20;34.60;;;;;;4992749;28;20410;-52
2023/10/01 09:35:30;;;;;;;1.60;1.27;;;23.30;35.00;;;;;;4993280;28;20414;-53
2023/10/01 09:38:13;;;;;;;1.90;0.90;;;23.40;35.00;;;;;;4993097;28;20510;-54
2023/10/01 09:40:43;;;;;;;2.40;1.20;;;23.50;34.30;;;;;;4993004;28;20407;-53
2023/10/01 09:43:19;;;;;;;1.83;1.20;;;23.60;34.40;;;;;;4993648;28;20406;-51
2023/10/01 09:45:46;;;;;;;2.47;0.90;;;23.60;34.20;;;;;;4993329;28;20752;-51
2023/10/01 09:48:48;;;;;;;5.63;1.33;;;23.60;33.60;;;;;;4993192;28;20418;-53
2023/10/01 09:51:14;;;;;;;2.93;1.20;;;23.60;34.00;;;;;;4992565;28;20422;-53
2023/10/01 09:53:44;;;;;;;1.13;0.80;;;23.60;33.90;;;;;;4992347;28;20394;-54
2023/10/01 09:56:12;;;;;;;1.83;0.80;;;23.70;34.70;;;;;;4992404;28;20449;-52
2023/10/01 09:58:46;;;;;;;2.50;1.50;;;23.80;33.70;;;;;;4992317;28;20805;-51
2023/10/01 10:01:17;;;;;;;2.03;1.00;;;24.00;33.10;;;;;;4995764;28;20407;-51
2023/10/01 10:03:43;;;;;;;1.30;1.00;;;24.20;34.20;;;;;;4996095;28;20421;-52
2023/10/01 10:06:10;;;;;;;1.43;1.20;;;24.40;32.80;;;;;;4996104;28;20916;-49
2023/10/01 10:08:40;;;;;;;4.80;4.23;;;24.60;32.70;;;;;;4996003;28;20436;-49
2023/10/01 10:11:23;;;;;;;2.57;0.90;;;24.80;32.70;;;;;;4996052;28;20499;-49
2023/10/01 10:13:57;;;;;;;2.17;1.47;;;24.90;32.90;;;;;;4995708;28;20411;-49
2023/10/01 10:16:30;;;;;;;2.70;0.70;;;24.90;31.50;;;;;;4995903;28;20969;-53
2023/10/01 10:19:05;;;;;;;3.70;1.10;;;25.00;32.80;;;;;;4995857;28;20458;-49
2023/10/01 10:24:45;;;;;;;1.60;1.30;;;25.20;32.60;;;;;;4995913;28;20901;-53
2023/10/01 10:27:34;;;;;;;1.77;0.87;;;25.30;32.20;;;;;;4995594;28;20449;-51
2023/10/01 10:30:05;;;;;;;3.17;1.40;;;25.40;31.90;;;;;;4987655;28;20418;-50
2023/10/01 10:32:42;;;;;;;2.17;1.03;;;25.40;32.40;;;;;;4995303;28;20481;-52
2023/10/01 10:35:14;;;;;;;2.10;1.10;;;25.40;32.00;;;;;;4995965;28;20410;-50
2023/10/01 10:37:48;;;;;;;1.83;1.17;;;25.40;32.80;;;;;;4995712;28;20453;-49
2023/10/01 10:42:47;;;;;;;3.00;1.30;;;25.50;30.60;;;;;;4995422;28;20813;-51
2023/10/01 10:45:21;;;;;;;1.20;0.80;;;25.60;31.40;;;;;;4995792;28;20458;-49
2023/10/01 10:48:02;;;;;;;4.80;1.90;;;25.70;31.80;;;;;;4997635;28;20414;-55
2023/10/01 10:50:50;;;;;;;2.70;1.00;;;25.70;30.90;;;;;;4996860;28;20422;-51
2023/10/01 10:53:24;;;;;;;1.20;0.80;;;25.70;30.10;;;;;;4995543;28;20414;-53
2023/10/01 10:56:00;;;;;;;1.43;1.03;;;25.70;30.50;;;;;;4996482;28;20453;-53
2023/10/01 10:58:40;;;;;;;4.40;1.13;;;25.70;30.70;;;;;;4995327;28;20522;-51
2023/10/01 11:01:22;;;;;;;1.33;0.80;;;25.60;29.70;;;;;;4995223;28;20835;-52
2023/10/01 11:03:50;;;;;;;2.53;0.93;;;25.40;29.80;;;;;;4996390;28;20418;-52
2023/10/01 11:06:21;;;;;;;2.03;1.00;;;25.30;29.80;;;;;;4995091;28;20437;-51
2023/10/01 11:08:52;;;;;;;1.67;1.03;;;25.40;32.10;;;;;;4994956;28;20431;-52
2023/10/01 11:11:30;;;;;;;2.27;1.20;;;25.50;29.80;;;;;;4993849;28;20420;-56
2023/10/01 11:14:00;;;;;;;1.37;0.70;;;25.60;29.10;;;;;;4994721;28;20828;-51
2023/10/01 11:16:33;;;;;;;2.90;1.20;;;25.80;28.10;;;;;;4995024;28;20450;-55
2023/10/01 11:19:12;;;;;;;1.83;0.97;;;25.80;28.10;;;;;;4994882;28;20441;-52
2023/10/01 11:22:00;;;;;;;3.00;1.33;;;25.80;28.60;;;;;;4994870;28;20404;-56
2023/10/01 11:24:31;;;;;;;1.50;1.07;;;26.10;30.30;;;;;;4994425;28;20486;-53
2023/10/01 11:27:20;;;;;;;1.80;1.03;;;26.30;29.60;;;;;;4994520;28;20430;-55
2023/10/01 11:30:19;;;;;;;2.67;2.00;;;26.60;29.20;;;;;;4994607;28;20917;-52
2023/10/01 11:35:36;;;;;;;3.07;0.83;;;27.10;28.70;;;;;;4994498;28;20498;-54
2023/10/01 11:38:09;;;;;;;1.30;0.60;;;27.20;27.20;;;;;;4994359;28;21175;-48
2023/10/01 11:43:27;;;;;;;2.03;1.00;;;26.90;25.50;;;;;;4994445;28;20397;-51
2023/10/01 11:46:20;;;;;;;5.13;1.00;;;26.70;27.40;;;;;;4994322;28;20982;-53
2023/10/01 11:48:56;;;;;;;2.17;0.87;;;26.60;27.90;;;;;;4994356;28;20801;-52
2023/10/01 11:52:00;;;;;;;1.73;0.70;;;26.60;28.40;;;;;;4994214;28;20417;-52
2023/10/01 11:54:52;;;;;;;2.80;1.00;;;26.70;28.20;;;;;;4993988;28;20545;-54
2023/10/01 11:57:23;;;;;;;2.10;1.10;;;26.80;27.60;;;;;;4994026;28;20520;-51
2023/10/01 11:59:56;;;;;;;2.47;1.33;;;26.70;27.20;;;;;;4994031;28;20445;-54
2023/10/01 12:02:26;;;;;;;2.27;1.23;;;26.70;27.20;;;;;;4993765;28;20897;-53
2023/10/01 12:05:21;;;;;;;1.10;0.60;;;26.60;28.00;;;;;;4993900;28;20414;-52
2023/10/01 12:07:47;;;;;;;1.50;0.90;;;26.60;28.30;;;;;;4992203;28;20775;-51
2023/10/01 12:10:35;;;;;;;2.87;0.90;;;26.60;28.60;;;;;;4993692;28;20999;-51
2023/10/01 12:13:07;;;;;;;1.60;0.90;;;26.60;27.30;;;;;;4993618;28;20186;-52
2023/10/01 12:15:40;;;;;;;2.23;0.90;;;26.50;25.30;;;;;;4993837;28;20910;-53
2023/10/01 12:18:14;;;;;;;1.40;0.70;;;26.50;24.80;;;;;;4993743;28;20789;-54
2023/10/01 12:20:55;;;;;;;1.13;0.77;;;26.40;25.90;;;;;;4993633;28;20403;-52
2023/10/01 12:23:22;;;;;;;2.37;1.47;;;26.30;25.50;;;;;;4993255;28;20414;-53
2023/10/01 12:28:23;;;;;;;3.27;1.50;;;26.20;27.00;;;;;;4993469;28;20801;-54
2023/10/01 12:31:01;;;;;;;1.53;0.60;;;26.10;26.90;;;;;;4993376;28;20493;-53
2023/10/01 12:36:31;;;;;;;1.47;0.73;;;26.20;27.70;;;;;;4993427;28;20438;-52
2023/10/01 12:44:25;;;;;;;2.73;1.47;;;26.20;25.90;;;;;;4993658;28;20405;-55
2023/10/01 12:47:07;;;;;;;2.20;1.13;;;26.20;27.60;;;;;;4993599;28;20915;-52
2023/10/01 12:49:36;;;;;;;2.03;0.70;;;26.20;26.80;;;;;;4993113;28;20446;-55
2023/10/01 12:52:14;;;;;;;1.40;0.60;;;26.30;27.40;;;;;;4993039;28;20421;-52
2023/10/01 12:54:41;;;;;;;1.73;0.87;;;26.30;27.60;;;;;;4992868;28;20406;-54
2023/10/01 12:57:18;;;;;;;1.70;0.83;;;26.40;28.20;;;;;;4993170;28;20501;-52
2023/10/01 12:59:46;;;;;;;2.53;1.50;;;26.40;27.90;;;;;;4993140;28;20414;-55
2023/10/01 13:02:40;;;;;;;2.50;0.77;;;26.40;27.30;;;;;;4992854;28;20942;-54
2023/10/01 13:05:22;;;;;;;1.90;0.90;;;26.40;27.30;;;;;;4993050;28;20410;-51
2023/10/01 13:07:50;;;;;;;2.53;1.37;;;26.30;26.90;;;;;;4993019;28;20944;-54
2023/10/01 13:10:18;;;;;;;1.30;0.73;;;26.30;27.30;;;;;;4992742;28;20421;-52
2023/10/01 13:12:56;;;;;;;2.30;1.70;;;26.30;28.20;;;;;;4992507;28;20415;-53
2023/10/01 13:16:16;;;;;;;1.67;1.17;;;26.30;27.50;;;;;;4993145;28;20576;-50
2023/10/01 13:18:17;;;;;;;2.53;1.10;;;26.20;25.90;;;;;;4989609;28;20449;-52
2023/10/01 13:20:58;;;;;;;2.00;1.07;;;26.20;26.80;;;;;;4992843;28;20426;-54
2023/10/01 13:23:31;;;;;;;1.70;1.17;;;26.10;27.20;;;;;;4992574;28;20429;-52
2023/10/01 13:26:15;;;;;;;1.40;0.80;;;26.20;27.30;;;;;;4992661;28;20430;-53
2023/10/01 13:28:53;;;;;;;2.23;1.00;;;26.10;27.30;;;;;;4992960;28;20441;-55
2023/10/01 13:34:06;;;;;;;2.40;1.03;;;26.00;26.90;;;;;;4993450;28;20486;-53
2023/10/01 14:09:48;;;;;;;6.03;2.03;;;25.80;28.10;;;;;;4998963;28;20936;-54
2023/10/01 14:12:41;;;;;;;1.97;0.93;;;25.80;28.10;;;;;;4998847;28;20418;-51
2023/10/01 14:15:21;;;;;;;2.83;1.10;;;25.80;28.10;;;;;;4998866;28;20480;-51
2023/10/01 14:17:54;;;;;;;3.43;1.20;;;25.80;28.10;;;;;;4998835;28;20469;-50
2023/10/01 14:20:37;;;;;;;3.13;1.03;;;25.80;28.20;;;;;;4998721;28;20415;-52
2023/10/01 14:23:07;;;;;;;2.20;1.00;;;25.80;27.30;;;;;;4998467;28;20398;-50
2023/10/01 14:25:58;;;;;;;2.43;1.10;;;25.70;27.80;;;;;;4998617;28;20923;-52
2023/10/01 14:28:26;;;;;;;1.20;0.60;;;25.70;28.40;;;;;;4998904;28;20484;-50
2023/10/01 14:30:59;;;;;;;1.70;1.37;;;25.70;28.90;;;;;;4998561;28;20908;-50
2023/10/01 14:33:28;;;;;;;2.83;1.20;;;25.70;29.00;;;;;;4998361;28;20402;-53
2023/10/01 14:35:55;;;;;;;1.73;1.03;;;25.70;28.80;;;;;;4998429;28;20421;-51
2023/10/01 14:38:42;;;;;;;4.80;2.13;;;25.70;29.30;;;;;;4998343;28;20974;-52
2023/10/01 14:41:17;;;;;;;4.10;1.73;;;25.70;29.00;;;;;;4998422;28;20399;-49
2023/10/01 14:43:53;;;;;;;6.20;1.17;;;25.60;29.10;;;;;;4998326;28;20769;-50
2023/10/01 14:46:33;;;;;;;1.20;0.93;;;25.60;29.10;;;;;;4996867;28;20421;-53
2023/10/01 14:49:06;;;;;;;1.43;0.60;;;25.60;29.00;;;;;;4995626;28;20525;-50
2023/10/01 14:51:33;;;;;;;2.73;1.37;;;25.50;29.40;;;;;;4995459;28;20492;-50
2023/10/01 14:54:01;;;;;;;1.93;1.00;;;25.60;29.60;;;;;;4995036;28;20404;-53
2023/10/01 14:56:31;;;;;;;2.83;1.40;;;25.50;29.50;;;;;;4995306;28;20446;-50
2023/10/01 14:59:01;;;;;;;2.07;1.03;;;25.50;29.40;;;;;;4995179;28;20949;-50
2023/10/01 15:01:36;;;;;;;2.03;1.40;;;25.50;29.50;;;;;;4995344;28;20403;-53
2023/10/01 15:04:17;;;;;;;2.97;1.03;;;25.50;29.60;;;;;;4994929;28;20935;-50